createdAt,value
2022-11-28T00:01:13.875Z,41.0
2022-11-28T00:08:46.110Z,41.0
2022-11-28T00:16:18.484Z,41.0
2022-11-28T00:23:50.815Z,40.9
2022-11-28T00:31:23.113Z,40.9
2022-11-28T00:38:55.390Z,40.9
2022-11-28T00:46:27.668Z,40.9
2022-11-28T00:53:59.946Z,40.9
2022-11-28T01:01:32.254Z,40.9
2022-11-28T01:09:04.634Z,40.8
2022-11-28T01:16:37.024Z,40.9
2022-11-28T01:24:09.465Z,40.8
2022-11-28T01:31:41.917Z,40.9
2022-11-28T01:39:14.292Z,40.8
2022-11-28T01:46:46.768Z,40.8
2022-11-28T01:54:19.155Z,40.8
2022-11-28T02:01:51.511Z,40.7
2022-11-28T02:09:23.835Z,40.7
2022-11-28T02:16:56.103Z,40.5
2022-11-28T02:24:28.421Z,40.5
2022-11-28T02:32:00.696Z,40.5
2022-11-28T02:39:32.963Z,40.4
2022-11-28T02:47:05.294Z,40.3
2022-11-28T02:54:37.703Z,40.3
2022-11-28T03:02:10.062Z,40.3
2022-11-28T03:09:42.394Z,40.1
2022-11-28T03:17:14.672Z,40.0
2022-11-28T03:24:46.993Z,40.1
2022-11-28T03:32:19.332Z,40.1
2022-11-28T03:39:51.620Z,40.1
2022-11-28T03:47:23.944Z,40.0
2022-11-28T03:54:56.231Z,40.0
2022-11-28T04:02:28.542Z,40.1
2022-11-28T04:10:00.852Z,40.3
2022-11-28T04:17:33.173Z,40.5
2022-11-28T04:25:05.642Z,40.5
2022-11-28T04:32:37.924Z,40.6
2022-11-28T04:40:10.246Z,40.6
2022-11-28T04:47:42.522Z,40.6
2022-11-28T04:55:14.794Z,40.5
2022-11-28T05:02:47.060Z,40.5
2022-11-28T05:10:19.380Z,40.5
2022-11-28T05:13:11.668Z,40.5
2022-11-28T05:13:58.955Z,40.4
2022-11-28T05:14:46.319Z,40.3
2022-11-28T05:15:33.628Z,40.1
2022-11-28T05:16:20.969Z,40.0
2022-11-28T05:17:08.357Z,39.9
2022-11-28T05:17:55.682Z,40.0
2022-11-28T05:18:42.990Z,40.1
2022-11-28T05:19:30.322Z,40.2
2022-11-28T05:20:17.620Z,40.2
2022-11-28T05:21:04.922Z,40.2
2022-11-28T05:21:52.183Z,40.2
2022-11-28T05:22:39.444Z,40.2
2022-11-28T05:23:26.710Z,40.2
2022-11-28T05:24:13.998Z,40.2
2022-11-28T05:25:01.298Z,40.7
2022-11-28T05:25:48.599Z,40.3
2022-11-28T05:26:35.862Z,40.3
2022-11-28T05:27:23.127Z,40.2
2022-11-28T05:28:10.420Z,40.2
2022-11-28T05:28:57.686Z,40.2
2022-11-28T05:29:49.390Z,40.2
2022-11-28T05:30:39.251Z,40.1
2022-11-28T05:31:26.754Z,40.1
2022-11-28T05:32:14.111Z,40.0
2022-11-28T05:33:01.387Z,40.1
2022-11-28T05:33:48.774Z,40.1
2022-11-28T05:34:36.038Z,40.2
2022-11-28T05:35:23.340Z,40.3
2022-11-28T05:36:13.214Z,40.3
2022-11-28T05:37:00.909Z,40.4
2022-11-28T05:37:48.254Z,40.4
2022-11-28T05:38:35.581Z,40.5
2022-11-28T05:39:22.861Z,40.6
2022-11-28T05:40:10.209Z,40.6
2022-11-28T05:40:57.519Z,40.6
2022-11-28T05:41:44.782Z,40.6
2022-11-28T05:42:32.176Z,40.8
2022-11-28T05:43:19.480Z,40.8
2022-11-28T05:44:06.824Z,40.6
2022-11-28T05:44:54.121Z,40.5
2022-11-28T05:45:41.462Z,40.3
2022-11-28T05:46:28.820Z,40.2
2022-11-28T05:47:16.101Z,39.9
2022-11-28T05:48:03.354Z,40.0
2022-11-28T05:48:50.661Z,39.8
2022-11-28T05:49:37.930Z,39.8
2022-11-28T05:50:25.192Z,39.8
2022-11-28T05:51:12.454Z,40.1
2022-11-28T05:51:59.804Z,40.2
2022-11-28T05:52:47.149Z,40.2
2022-11-28T05:53:34.414Z,40.3
2022-11-28T05:54:21.752Z,40.4
2022-11-28T05:55:09.059Z,40.5
2022-11-28T05:55:56.328Z,40.5
2022-11-28T05:56:43.650Z,40.4
2022-11-28T05:57:30.957Z,40.3
2022-11-28T05:58:18.265Z,40.4
2022-11-28T05:59:05.536Z,40.5
2022-11-28T05:59:52.803Z,40.6
2022-11-28T06:00:40.074Z,40.5
2022-11-28T06:01:27.397Z,40.7
2022-11-28T06:02:14.725Z,40.7
2022-11-28T06:03:02.059Z,40.4
2022-11-28T06:03:49.375Z,39.9
2022-11-28T06:04:36.749Z,39.9
2022-11-28T06:05:41.666Z,40.0
2022-11-28T06:06:21.351Z,40.1
2022-11-28T06:07:08.796Z,40.2
2022-11-28T06:07:56.125Z,40.2
2022-11-28T06:08:43.451Z,40.0
2022-11-28T06:09:30.924Z,39.4
2022-11-28T06:10:18.240Z,38.3
2022-11-28T06:11:05.629Z,38.0
2022-11-28T06:11:53.004Z,38.4
2022-11-28T06:12:40.322Z,38.6
2022-11-28T06:13:27.637Z,38.7
2022-11-28T06:14:15.031Z,38.9
2022-11-28T06:15:02.308Z,39.1
2022-11-28T06:15:49.611Z,39.4
2022-11-28T06:16:37.035Z,39.5
2022-11-28T06:17:24.368Z,39.8
2022-11-28T06:18:11.667Z,39.9
2022-11-28T06:18:59.087Z,39.9
2022-11-28T06:19:46.520Z,39.9
2022-11-28T06:20:33.791Z,39.9
2022-11-28T06:21:21.231Z,39.9
2022-11-28T06:22:08.542Z,40.0
2022-11-28T06:22:55.814Z,40.1
2022-11-28T06:23:43.297Z,40.1
2022-11-28T06:24:30.574Z,40.1
2022-11-28T06:25:17.860Z,40.1
2022-11-28T06:26:05.276Z,40.2
2022-11-28T06:26:52.580Z,40.0
2022-11-28T06:27:39.847Z,39.9
2022-11-28T06:28:27.333Z,39.9
2022-11-28T06:29:14.638Z,39.9
2022-11-28T06:30:01.912Z,40.0
2022-11-28T06:30:49.308Z,40.1
2022-11-28T06:31:36.719Z,40.1
2022-11-28T06:32:24.044Z,40.2
2022-11-28T06:33:11.453Z,40.4
2022-11-28T06:33:58.724Z,40.3
2022-11-28T06:34:46.016Z,40.2
2022-11-28T06:35:33.379Z,40.1
2022-11-28T06:36:20.667Z,40.0
2022-11-28T06:37:07.977Z,40.0
2022-11-28T06:37:55.407Z,40.0
2022-11-28T06:38:42.712Z,39.8
2022-11-28T06:39:30.028Z,39.6
2022-11-28T06:40:17.384Z,39.7
2022-11-28T06:41:04.658Z,39.8
2022-11-28T06:41:51.927Z,39.8
2022-11-28T06:42:39.347Z,39.8
2022-11-28T06:43:26.630Z,39.9
2022-11-28T06:44:14.010Z,40.0
2022-11-28T06:45:01.307Z,40.1
2022-11-28T06:45:48.662Z,40.1
2022-11-28T06:46:35.959Z,40.1
2022-11-28T06:47:23.427Z,40.3
2022-11-28T06:48:10.749Z,40.4
2022-11-28T06:48:58.069Z,40.4
2022-11-28T06:49:45.557Z,40.4
2022-11-28T06:50:32.902Z,40.4
2022-11-28T06:51:20.162Z,40.4
2022-11-28T06:52:07.611Z,40.4
2022-11-28T06:52:54.892Z,40.4
2022-11-28T06:53:42.296Z,40.4
2022-11-28T06:54:29.609Z,40.4
2022-11-28T06:55:16.896Z,40.5
2022-11-28T06:56:04.200Z,40.5
2022-11-28T06:56:51.612Z,40.6
2022-11-28T06:57:38.887Z,40.6
2022-11-28T06:58:26.150Z,40.6
2022-11-28T06:59:13.591Z,40.6
2022-11-28T07:00:00.855Z,40.6
2022-11-28T07:00:48.201Z,40.4
2022-11-28T07:01:35.622Z,40.4
2022-11-28T07:02:23.009Z,40.5
2022-11-28T07:03:10.350Z,40.6
2022-11-28T07:03:57.700Z,40.5
2022-11-28T07:04:44.962Z,40.5
2022-11-28T07:05:32.236Z,40.4
2022-11-28T07:06:19.695Z,40.4
2022-11-28T07:07:06.969Z,40.4
2022-11-28T07:07:54.739Z,40.4
2022-11-28T07:08:42.081Z,40.4
2022-11-28T07:09:29.435Z,40.5
2022-11-28T07:10:16.740Z,40.6
2022-11-28T07:11:04.008Z,40.5
2022-11-28T07:11:51.283Z,40.6
2022-11-28T07:12:38.585Z,40.5
2022-11-28T07:13:25.852Z,40.5
2022-11-28T07:14:13.136Z,40.4
2022-11-28T07:15:00.422Z,40.4
2022-11-28T07:15:47.687Z,40.6
2022-11-28T07:16:35.032Z,40.4
2022-11-28T07:17:22.376Z,40.4
2022-11-28T07:18:09.666Z,40.4
2022-11-28T07:18:56.982Z,40.4
2022-11-28T07:19:44.526Z,40.4
2022-11-28T07:20:32.552Z,40.5
2022-11-28T07:21:20.072Z,40.4
2022-11-28T07:22:07.390Z,40.3
2022-11-28T07:22:54.692Z,40.2
2022-11-28T07:23:42.167Z,40.2
2022-11-28T07:24:29.497Z,40.2
2022-11-28T07:25:16.815Z,40.2
2022-11-28T07:26:04.195Z,40.2
2022-11-28T07:26:51.509Z,40.2
2022-11-28T07:27:38.854Z,40.1
2022-11-28T07:28:26.241Z,40.2
2022-11-28T07:29:13.517Z,40.3
2022-11-28T07:30:00.845Z,40.2
2022-11-28T07:30:48.216Z,40.2
2022-11-28T07:31:35.503Z,40.2
2022-11-28T07:32:22.783Z,40.1
2022-11-28T07:33:10.221Z,40.0
2022-11-28T07:33:57.475Z,40.0
2022-11-28T07:34:49.896Z,40.0
2022-11-28T07:35:37.465Z,40.1
2022-11-28T07:36:24.957Z,40.1
2022-11-28T07:37:12.283Z,40.2
2022-11-28T07:37:59.553Z,40.2
2022-11-28T07:38:46.991Z,40.3
2022-11-28T07:39:34.279Z,40.1
2022-11-28T07:40:21.577Z,40.0
2022-11-28T07:41:08.976Z,39.8
2022-11-28T07:41:56.250Z,39.8
2022-11-28T07:42:43.563Z,39.9
2022-11-28T07:43:30.963Z,39.9
2022-11-28T07:44:18.247Z,39.9
2022-11-28T07:45:05.524Z,40.2
2022-11-28T07:46:01.036Z,40.2
2022-11-28T07:46:48.846Z,40.2
2022-11-28T07:47:36.222Z,40.3
2022-11-28T07:48:23.536Z,40.5
2022-11-28T07:49:10.879Z,40.1
2022-11-28T07:49:58.240Z,38.2
2022-11-28T07:50:45.526Z,37.9
2022-11-28T07:51:32.889Z,38.0
2022-11-28T07:52:20.207Z,38.3
2022-11-28T07:53:07.580Z,38.3
2022-11-28T07:53:54.855Z,38.8
2022-11-28T07:54:42.281Z,38.8
2022-11-28T07:55:29.542Z,38.8
2022-11-28T07:56:16.863Z,39.1
2022-11-28T07:57:12.579Z,39.3
2022-11-28T07:58:00.601Z,40.1
2022-11-28T07:58:48.041Z,39.8
2022-11-28T07:59:35.364Z,40.0
2022-11-28T08:00:22.633Z,39.7
2022-11-28T08:01:10.111Z,39.8
2022-11-28T08:01:57.470Z,39.8
2022-11-28T08:02:44.789Z,40.1
2022-11-28T08:03:32.228Z,40.0
2022-11-28T08:04:19.575Z,40.0
2022-11-28T08:05:07.035Z,40.2
2022-11-28T08:05:55.093Z,40.3
2022-11-28T08:06:44.328Z,40.9
2022-11-28T08:07:31.700Z,40.7
2022-11-28T08:08:19.020Z,40.6
2022-11-28T08:09:06.322Z,40.5
2022-11-28T08:09:53.651Z,40.4
2022-11-28T08:10:40.966Z,40.4
2022-11-28T08:11:28.249Z,40.4
2022-11-28T08:12:15.596Z,40.3
2022-11-28T08:13:02.881Z,40.3
2022-11-28T08:13:51.823Z,40.3
2022-11-28T08:14:42.018Z,40.1
2022-11-28T08:15:29.625Z,39.3
2022-11-28T08:16:16.953Z,38.5
2022-11-28T08:17:04.387Z,38.7
2022-11-28T08:17:51.761Z,38.9
2022-11-28T08:18:39.080Z,39.1
2022-11-28T08:19:28.312Z,39.3
2022-11-28T08:20:19.408Z,39.5
2022-11-28T08:21:06.760Z,39.5
2022-11-28T08:21:54.098Z,39.7
2022-11-28T08:22:41.383Z,39.9
2022-11-28T08:23:28.825Z,40.2
2022-11-28T08:24:16.107Z,40.0
2022-11-28T08:25:03.374Z,39.7
2022-11-28T08:25:50.996Z,39.7
2022-11-28T08:26:38.281Z,39.6
2022-11-28T08:27:25.610Z,39.5
2022-11-28T08:28:13.007Z,39.7
2022-11-28T08:29:00.292Z,39.7
2022-11-28T08:29:51.812Z,39.7
2022-11-28T08:30:40.508Z,39.8
2022-11-28T08:31:27.886Z,39.9
2022-11-28T08:32:15.251Z,39.9
2022-11-28T08:33:02.521Z,39.7
2022-11-28T08:33:49.964Z,39.7
2022-11-28T08:34:37.235Z,39.8
2022-11-28T08:35:24.544Z,39.9
2022-11-28T08:36:11.903Z,39.9
2022-11-28T08:36:59.200Z,39.6
2022-11-28T08:37:46.516Z,39.2
2022-11-28T08:38:33.882Z,39.4
2022-11-28T08:39:25.314Z,39.5
2022-11-28T08:40:12.885Z,39.5
2022-11-28T08:41:00.317Z,39.7
2022-11-28T08:41:47.628Z,39.6
2022-11-28T08:42:34.967Z,39.7
2022-11-28T08:43:22.307Z,39.8
2022-11-28T08:44:09.586Z,39.8
2022-11-28T08:44:56.859Z,39.9
2022-11-28T08:45:44.326Z,39.9
2022-11-28T08:46:31.703Z,40.0
2022-11-28T08:47:18.988Z,40.1
2022-11-28T08:48:06.437Z,40.0
2022-11-28T08:48:53.728Z,40.0
2022-11-28T08:49:41.150Z,39.9
2022-11-28T08:50:28.724Z,39.9
2022-11-28T08:51:16.044Z,40.0
2022-11-28T08:52:03.378Z,40.2
2022-11-28T08:52:50.744Z,40.2
2022-11-28T08:53:38.056Z,40.2
2022-11-28T08:54:25.378Z,40.1
2022-11-28T08:55:12.781Z,40.1
2022-11-28T08:56:00.075Z,40.1
2022-11-28T08:56:47.361Z,40.1
2022-11-28T08:57:34.812Z,38.8
2022-11-28T08:58:22.144Z,36.9
2022-11-28T08:59:09.462Z,36.3
2022-11-28T08:59:56.850Z,36.6
2022-11-28T09:00:44.135Z,37.3
2022-11-28T09:01:31.471Z,37.9
2022-11-28T09:02:21.982Z,38.1
2022-11-28T09:03:13.029Z,38.7
2022-11-28T09:04:00.530Z,39.0
2022-11-28T09:04:47.826Z,39.4
2022-11-28T09:05:35.158Z,39.5
2022-11-28T09:06:22.548Z,39.1
2022-11-28T09:07:09.825Z,39.2
2022-11-28T09:07:57.168Z,40.0
2022-11-28T09:08:44.565Z,40.1
2022-11-28T09:09:32.964Z,39.8
2022-11-28T09:10:20.364Z,39.7
2022-11-28T09:11:07.782Z,40.1
2022-11-28T09:11:55.099Z,39.8
2022-11-28T09:12:42.397Z,39.9
2022-11-28T09:13:29.807Z,39.9
2022-11-28T09:14:17.080Z,40.1
2022-11-28T09:15:04.404Z,39.4
2022-11-28T09:15:53.754Z,39.3
2022-11-28T09:16:41.096Z,39.4
2022-11-28T09:17:28.491Z,39.4
2022-11-28T09:18:15.796Z,39.6
2022-11-28T09:19:03.071Z,39.7
2022-11-28T09:19:50.425Z,40.2
2022-11-28T09:20:37.710Z,40.0
2022-11-28T09:21:25.012Z,40.0
2022-11-28T09:22:12.336Z,39.9
2022-11-28T09:22:59.636Z,39.8
2022-11-28T09:23:46.961Z,39.9
2022-11-28T09:24:34.269Z,39.9
2022-11-28T09:25:21.606Z,39.9
2022-11-28T09:26:08.921Z,40.1
2022-11-28T09:26:56.203Z,40.2
2022-11-28T09:27:43.481Z,40.2
2022-11-28T09:28:30.755Z,40.2
2022-11-28T09:29:18.077Z,40.0
2022-11-28T09:30:05.403Z,39.9
2022-11-28T09:30:52.737Z,39.9
2022-11-28T09:31:43.141Z,39.8
2022-11-28T09:32:34.345Z,38.9
2022-11-28T09:33:21.790Z,38.3
2022-11-28T09:34:09.066Z,38.7
2022-11-28T09:34:56.342Z,38.7
2022-11-28T09:35:43.810Z,38.8
2022-11-28T09:36:31.233Z,38.9
2022-11-28T09:37:18.502Z,39.3
2022-11-28T09:38:05.960Z,39.6
2022-11-28T09:38:53.295Z,39.8
2022-11-28T09:39:57.449Z,39.9
2022-11-28T09:40:37.864Z,40.1
2022-11-28T09:41:25.258Z,40.3
2022-11-28T09:42:12.590Z,40.3
2022-11-28T09:42:59.901Z,40.3
2022-11-28T09:43:52.033Z,40.2
2022-11-28T09:44:41.923Z,40.3
2022-11-28T09:45:29.412Z,40.2
2022-11-28T09:46:16.799Z,40.2
2022-11-28T09:47:04.218Z,40.3
2022-11-28T09:47:51.623Z,40.3
2022-11-28T09:48:38.967Z,40.3
2022-11-28T09:49:26.207Z,40.3
2022-11-28T09:50:13.657Z,40.3
2022-11-28T09:51:00.934Z,40.4
2022-11-28T09:51:48.224Z,40.3
2022-11-28T09:52:35.726Z,40.4
2022-11-28T09:53:23.137Z,40.3
2022-11-28T09:54:10.457Z,40.3
2022-11-28T09:54:57.852Z,40.3
2022-11-28T09:55:45.157Z,40.4
2022-11-28T09:56:32.476Z,40.5
2022-11-28T09:57:19.863Z,40.5
2022-11-28T09:58:07.201Z,40.5
2022-11-28T09:58:54.487Z,40.0
2022-11-28T09:59:42.179Z,39.4
2022-11-28T10:00:29.903Z,39.5
2022-11-28T10:01:17.181Z,39.8
2022-11-28T10:02:04.499Z,39.8
2022-11-28T10:02:51.817Z,39.8
2022-11-28T10:03:39.142Z,39.9
2022-11-28T10:04:26.490Z,40.1
2022-11-28T10:05:13.925Z,40.2
2022-11-28T10:06:01.265Z,40.7
2022-11-28T10:06:48.542Z,41.1
2022-11-28T10:07:36.038Z,41.1
2022-11-28T10:08:23.367Z,41.3
2022-11-28T10:09:10.661Z,41.3
2022-11-28T10:09:58.114Z,41.6
2022-11-28T10:10:45.452Z,41.6
2022-11-28T10:11:32.793Z,41.4
2022-11-28T10:12:20.155Z,41.3
2022-11-28T10:13:07.434Z,41.2
2022-11-28T10:14:07.618Z,41.2
2022-11-28T10:14:51.994Z,41.2
2022-11-28T10:15:39.386Z,41.2
2022-11-28T10:16:26.659Z,41.2
2022-11-28T10:17:13.990Z,41.0
2022-11-28T10:18:01.409Z,41.1
2022-11-28T10:18:48.680Z,40.9
2022-11-28T10:19:53.946Z,41.4
2022-11-28T10:20:33.254Z,40.9
2022-11-28T10:21:20.658Z,40.9
2022-11-28T10:22:07.948Z,41.0
2022-11-28T10:22:55.246Z,41.0
2022-11-28T10:23:42.717Z,41.2
2022-11-28T10:24:29.968Z,41.1
2022-11-28T10:25:17.297Z,41.0
2022-11-28T10:26:04.909Z,40.9
2022-11-28T10:26:52.317Z,40.8
2022-11-28T10:27:39.636Z,40.8
2022-11-28T10:28:26.995Z,40.7
2022-11-28T10:29:14.278Z,40.7
2022-11-28T10:30:01.626Z,40.7
2022-11-28T10:30:49.019Z,40.8
2022-11-28T10:31:36.431Z,40.7
2022-11-28T10:32:23.764Z,40.8
2022-11-28T10:33:11.158Z,40.9
2022-11-28T10:33:58.427Z,40.7
2022-11-28T10:34:45.711Z,40.6
2022-11-28T10:35:33.214Z,40.6
2022-11-28T10:36:20.547Z,40.7
2022-11-28T10:37:07.821Z,41.0
2022-11-28T10:37:55.289Z,40.9
2022-11-28T10:38:42.606Z,40.9
2022-11-28T10:39:29.926Z,40.8
2022-11-28T10:40:17.358Z,40.7
2022-11-28T10:41:04.634Z,40.9
2022-11-28T10:41:51.937Z,40.7
2022-11-28T10:42:39.367Z,40.7
2022-11-28T10:43:26.661Z,40.7
2022-11-28T10:44:18.373Z,40.6
2022-11-28T10:45:08.643Z,40.7
2022-11-28T10:45:56.052Z,40.7
2022-11-28T10:46:43.458Z,40.7
2022-11-28T10:47:30.859Z,40.7
2022-11-28T10:49:15.563Z,40.6
2022-11-28T10:50:03.031Z,40.6
2022-11-28T10:50:50.589Z,40.7
2022-11-28T10:51:37.907Z,40.8
2022-11-28T10:52:25.334Z,40.7
2022-11-28T10:53:12.648Z,40.8
2022-11-28T10:53:59.936Z,40.8
2022-11-28T10:54:47.405Z,40.9
2022-11-28T10:55:34.721Z,40.7
2022-11-28T10:56:21.997Z,40.7
2022-11-28T10:57:09.464Z,40.6
2022-11-28T10:57:56.740Z,40.7
2022-11-28T10:58:44.020Z,40.4
2022-11-28T10:59:31.443Z,39.2
2022-11-28T11:00:18.774Z,39.4
2022-11-28T11:01:06.572Z,39.4
2022-11-28T11:01:53.957Z,39.4
2022-11-28T11:02:41.529Z,39.5
2022-11-28T11:03:28.813Z,39.7
2022-11-28T11:04:16.207Z,39.8
2022-11-28T11:05:03.624Z,39.9
2022-11-28T11:05:51.026Z,39.8
2022-11-28T11:06:47.675Z,39.8
2022-11-28T11:07:35.675Z,39.7
2022-11-28T11:08:23.157Z,39.7
2022-11-28T11:09:10.462Z,39.8
2022-11-28T11:09:57.770Z,39.8
2022-11-28T11:10:45.164Z,39.8
2022-11-28T11:11:32.489Z,39.7
2022-11-28T11:12:19.832Z,39.7
2022-11-28T11:13:07.203Z,39.7
2022-11-28T11:13:54.477Z,39.8
2022-11-28T11:21:26.767Z,40.1
2022-11-28T11:28:59.049Z,39.7
2022-11-28T11:36:31.343Z,39.5
2022-11-28T11:44:03.661Z,39.5
2022-11-28T11:46:56.134Z,39.4
2022-11-28T11:47:43.456Z,39.5
2022-11-28T11:48:30.745Z,39.6
2022-11-28T11:49:18.017Z,39.7
2022-11-28T11:50:05.315Z,39.9
2022-11-28T11:50:52.584Z,39.9
2022-11-28T11:51:39.867Z,39.9
2022-11-28T11:52:27.135Z,39.8
2022-11-28T11:53:14.449Z,39.8
2022-11-28T11:54:01.790Z,39.8
2022-11-28T11:54:49.063Z,39.9
2022-11-28T11:55:36.403Z,39.9
2022-11-28T11:56:23.690Z,40.0
2022-11-28T11:57:32.128Z,40.0
2022-11-28T11:58:08.238Z,39.9
2022-11-28T11:58:55.611Z,40.0
2022-11-28T11:59:43.081Z,40.0
2022-11-28T12:00:30.651Z,40.1
2022-11-28T12:01:17.966Z,40.5
2022-11-28T12:02:05.298Z,40.4
2022-11-28T12:02:52.703Z,40.3
2022-11-28T12:03:40.157Z,40.4
2022-11-28T12:05:24.885Z,40.3
2022-11-28T12:06:14.835Z,40.3
2022-11-28T12:07:02.611Z,40.3
2022-11-28T12:07:50.098Z,40.4
2022-11-28T12:08:37.441Z,40.5
2022-11-28T12:09:24.784Z,40.5
2022-11-28T12:10:12.072Z,40.5
2022-11-28T12:10:59.354Z,40.6
2022-11-28T12:11:47.206Z,40.5
2022-11-28T12:12:34.693Z,40.5
2022-11-28T12:13:22.081Z,40.5
2022-11-28T12:14:09.417Z,40.5
2022-11-28T12:14:56.718Z,40.5
2022-11-28T12:15:44.234Z,40.5
2022-11-28T12:16:31.708Z,40.5
2022-11-28T12:17:47.249Z,40.6
2022-11-28T12:18:16.445Z,40.6
2022-11-28T12:19:03.747Z,40.7
2022-11-28T12:19:51.014Z,40.7
2022-11-28T12:20:38.330Z,40.9
2022-11-28T12:21:25.728Z,40.9
2022-11-28T12:22:13.022Z,40.8
2022-11-28T12:23:00.338Z,40.7
2022-11-28T12:23:47.747Z,40.1
2022-11-28T12:24:35.035Z,40.0
2022-11-28T12:25:22.343Z,40.0
2022-11-28T12:26:09.738Z,40.2
2022-11-28T12:26:57.011Z,40.3
2022-11-28T12:27:44.280Z,40.3
2022-11-28T12:28:31.745Z,40.4
2022-11-28T12:30:11.249Z,40.7
2022-11-28T12:30:58.692Z,40.5
2022-11-28T12:31:46.006Z,40.7
2022-11-28T12:32:33.335Z,40.8
2022-11-28T12:33:20.761Z,40.7
2022-11-28T12:34:08.079Z,41.0
2022-11-28T12:34:55.346Z,41.2
2022-11-28T12:35:42.787Z,41.1
2022-11-28T12:36:30.180Z,41.2
2022-11-28T12:37:17.496Z,41.2
2022-11-28T12:38:12.327Z,41.2
2022-11-28T12:38:59.752Z,41.4
2022-11-28T12:39:47.377Z,41.5
2022-11-28T12:40:34.661Z,41.4
2022-11-28T12:41:24.053Z,41.3
2022-11-28T12:42:15.017Z,41.2
2022-11-28T12:43:02.465Z,40.7
2022-11-28T12:43:49.752Z,40.5
2022-11-28T12:44:37.517Z,40.6
2022-11-28T12:45:24.833Z,40.5
2022-11-28T12:46:12.172Z,40.8
2022-11-28T12:46:59.502Z,41.1
2022-11-28T12:47:46.833Z,41.1
2022-11-28T12:48:34.149Z,41.1
2022-11-28T12:49:21.438Z,41.1
2022-11-28T12:50:08.745Z,41.3
2022-11-28T12:50:56.216Z,41.4
2022-11-28T12:51:43.552Z,41.5
2022-11-28T12:52:30.897Z,41.5
2022-11-28T12:53:18.278Z,41.5
2022-11-28T12:54:05.610Z,41.4
2022-11-28T12:54:52.896Z,41.6
2022-11-28T12:55:40.167Z,41.7
2022-11-28T12:56:27.483Z,41.5
2022-11-28T12:57:14.825Z,41.3
2022-11-28T12:58:06.754Z,41.3
2022-11-28T12:58:54.451Z,41.3
2022-11-28T12:59:42.153Z,41.4
2022-11-28T13:00:29.905Z,41.5
2022-11-28T13:01:17.230Z,41.5
2022-11-28T13:02:09.626Z,41.4
2022-11-28T13:02:57.258Z,41.4
2022-11-28T13:03:44.718Z,41.4
2022-11-28T13:04:32.010Z,41.5
2022-11-28T13:05:19.329Z,41.6
2022-11-28T13:06:06.713Z,41.5
2022-11-28T13:06:54.027Z,41.7
2022-11-28T13:07:41.371Z,41.4
2022-11-28T13:08:28.770Z,41.4
2022-11-28T13:09:16.063Z,41.5
2022-11-28T13:10:03.357Z,41.6
2022-11-28T13:10:50.779Z,41.6
2022-11-28T13:11:38.093Z,41.5
2022-11-28T13:12:25.423Z,41.4
2022-11-28T13:13:12.842Z,41.5
2022-11-28T13:14:00.123Z,41.6
2022-11-28T13:14:47.953Z,41.5
2022-11-28T13:15:35.632Z,41.6
2022-11-28T13:16:26.953Z,41.6
2022-11-28T13:17:14.868Z,41.3
2022-11-28T13:18:02.163Z,41.7
2022-11-28T13:18:49.448Z,41.7
2022-11-28T13:19:36.727Z,41.4
2022-11-28T13:20:24.035Z,41.3
2022-11-28T13:21:11.343Z,41.3
2022-11-28T13:21:58.650Z,41.2
2022-11-28T13:22:46.004Z,41.4
2022-11-28T13:23:33.357Z,41.3
2022-11-28T13:24:21.214Z,40.7
2022-11-28T13:25:08.537Z,40.1
2022-11-28T13:25:56.042Z,40.1
2022-11-28T13:26:43.375Z,39.9
2022-11-28T13:27:30.688Z,40.1
2022-11-28T13:28:18.112Z,40.1
2022-11-28T13:29:05.515Z,40.1
2022-11-28T13:29:52.856Z,40.1
2022-11-28T13:30:40.192Z,40.1
2022-11-28T13:31:27.574Z,40.0
2022-11-28T13:32:14.970Z,40.1
2022-11-28T13:33:02.357Z,40.3
2022-11-28T13:33:49.722Z,40.4
2022-11-28T13:34:37.193Z,40.4
2022-11-28T13:35:24.482Z,40.4
2022-11-28T13:38:35.272Z,40.3
2022-11-28T13:39:13.069Z,40.4
2022-11-28T13:40:00.770Z,40.3
2022-11-28T13:40:48.196Z,40.4
2022-11-28T13:42:06.318Z,40.7
2022-11-28T13:43:30.037Z,40.5
2022-11-28T13:44:17.429Z,40.2
2022-11-28T13:45:04.731Z,40.4
2022-11-28T13:45:52.573Z,40.9
2022-11-28T13:46:40.089Z,40.5
2022-11-28T13:47:27.479Z,40.5
2022-11-28T13:48:14.791Z,40.4
2022-11-28T13:49:20.626Z,40.3
2022-11-28T13:49:59.986Z,40.2
2022-11-28T13:50:47.372Z,40.4
2022-11-28T13:51:34.732Z,40.4
2022-11-28T13:52:22.013Z,40.4
2022-11-28T13:53:10.519Z,40.4
2022-11-28T13:53:57.928Z,40.2
2022-11-28T13:54:45.535Z,40.3
2022-11-28T13:55:33.302Z,40.3
2022-11-28T13:56:20.593Z,40.3
2022-11-28T13:57:07.909Z,40.4
2022-11-28T13:57:55.204Z,40.3
2022-11-28T13:58:42.487Z,40.6
2022-11-28T13:59:30.724Z,39.9
2022-11-28T14:00:18.063Z,39.4
2022-11-28T14:01:05.365Z,39.4
2022-11-28T14:01:52.747Z,39.9
2022-11-28T14:02:41.902Z,40.0
2022-11-28T14:03:29.268Z,39.7
2022-11-28T14:04:16.696Z,39.7
2022-11-28T14:05:04.014Z,39.9
2022-11-28T14:05:51.326Z,40.1
2022-11-28T14:06:38.646Z,40.1
2022-11-28T14:07:25.989Z,40.4
2022-11-28T14:08:13.338Z,40.5
2022-11-28T14:09:00.665Z,40.9
2022-11-28T14:09:47.983Z,40.6
2022-11-28T14:10:35.379Z,40.7
2022-11-28T14:11:27.437Z,40.7
2022-11-28T14:12:15.297Z,40.6
2022-11-28T14:13:02.669Z,40.6
2022-11-28T14:13:50.040Z,40.5
2022-11-28T14:14:37.410Z,40.4
2022-11-28T14:15:24.870Z,40.4
2022-11-28T14:16:12.223Z,40.8
2022-11-28T14:16:59.670Z,40.1
2022-11-28T14:17:47.016Z,40.3
2022-11-28T14:19:01.300Z,40.2
2022-11-28T14:19:31.629Z,38.9
2022-11-28T14:20:18.993Z,39.3
2022-11-28T14:21:06.328Z,39.3
2022-11-28T14:21:53.669Z,39.6
2022-11-28T14:22:41.066Z,39.7
2022-11-28T14:23:28.338Z,40.1
2022-11-28T14:24:15.613Z,39.9
2022-11-28T14:25:03.071Z,39.9
2022-11-28T14:25:50.360Z,39.8
2022-11-28T14:26:37.682Z,39.9
2022-11-28T14:27:25.048Z,39.9
2022-11-28T14:28:12.319Z,40.0
2022-11-28T14:28:59.634Z,40.0
2022-11-28T14:29:46.999Z,39.9
2022-11-28T14:30:34.275Z,39.5
2022-11-28T14:31:21.625Z,39.5
2022-11-28T14:32:29.455Z,39.1
2022-11-28T14:33:06.187Z,39.0
2022-11-28T14:33:53.673Z,39.1
2022-11-28T14:34:41.205Z,39.1
2022-11-28T14:35:28.816Z,39.2
2022-11-28T14:36:16.231Z,39.5
2022-11-28T14:37:03.526Z,39.8
2022-11-28T14:37:50.810Z,39.9
2022-11-28T14:38:38.269Z,39.9
2022-11-28T14:39:25.559Z,40.0
2022-11-28T14:40:12.908Z,40.9
2022-11-28T14:41:00.309Z,40.1
2022-11-28T14:41:47.691Z,40.0
2022-11-28T14:43:32.698Z,40.2
2022-11-28T14:44:20.105Z,40.3
2022-11-28T14:45:08.649Z,40.4
2022-11-28T14:45:56.130Z,40.4
2022-11-28T14:46:43.616Z,40.4
2022-11-28T14:47:31.721Z,40.3
2022-11-28T14:48:19.128Z,40.3
2022-11-28T14:49:06.533Z,40.4
2022-11-28T14:49:53.807Z,40.3
2022-11-28T14:50:41.081Z,40.4
2022-11-28T14:51:28.494Z,40.5
2022-11-28T14:52:37.720Z,40.4
2022-11-28T14:53:13.094Z,40.3
2022-11-28T14:54:00.454Z,40.6
2022-11-28T14:54:47.896Z,40.5
2022-11-28T14:55:35.262Z,40.6
2022-11-28T14:56:22.792Z,40.4
2022-11-28T14:57:10.143Z,40.6
2022-11-28T14:57:57.451Z,40.6
2022-11-28T14:58:45.035Z,40.5
2022-11-28T14:59:32.312Z,40.3
2022-11-28T15:00:19.625Z,40.5
2022-11-28T15:01:07.012Z,40.1
2022-11-28T15:01:54.381Z,40.4
2022-11-28T15:02:41.774Z,40.4
2022-11-28T15:03:29.188Z,40.4
2022-11-28T15:04:16.547Z,40.4
2022-11-28T15:05:03.865Z,40.3
2022-11-28T15:05:51.296Z,40.1
2022-11-28T15:06:38.699Z,40.2
2022-11-28T15:07:26.297Z,40.4
2022-11-28T15:08:13.644Z,40.4
2022-11-28T15:09:00.927Z,40.3
2022-11-28T15:09:48.200Z,40.3
2022-11-28T15:10:35.821Z,40.3
2022-11-28T15:11:23.160Z,40.4
2022-11-28T15:12:10.613Z,40.3
2022-11-28T15:12:57.897Z,40.3
2022-11-28T15:13:45.196Z,40.6
2022-11-28T15:14:32.480Z,40.5
2022-11-28T15:15:19.945Z,40.5
2022-11-28T15:16:07.328Z,40.2
2022-11-28T15:16:54.619Z,40.3
2022-11-28T15:17:42.037Z,40.3
2022-11-28T15:18:29.309Z,40.4
2022-11-28T15:19:16.625Z,40.5
2022-11-28T15:20:04.064Z,40.5
2022-11-28T15:20:51.351Z,40.6
2022-11-28T15:21:38.669Z,40.6
2022-11-28T15:22:26.053Z,40.4
2022-11-28T15:23:13.356Z,40.2
2022-11-28T15:24:00.673Z,40.1
2022-11-28T15:24:48.154Z,39.9
2022-11-28T15:25:35.474Z,39.8
2022-11-28T15:26:22.780Z,39.9
2022-11-28T15:27:10.183Z,39.6
2022-11-28T15:27:57.499Z,39.6
2022-11-28T15:28:44.775Z,39.8
2022-11-28T15:29:32.218Z,39.8
2022-11-28T15:30:19.522Z,39.8
2022-11-28T15:31:06.862Z,39.4
2022-11-28T15:31:54.210Z,38.8
2022-11-28T15:32:41.516Z,38.7
2022-11-28T15:33:28.827Z,38.8
2022-11-28T15:34:16.174Z,39.0
2022-11-28T15:35:06.545Z,39.1
2022-11-28T15:35:56.723Z,39.1
2022-11-28T15:36:44.069Z,39.1
2022-11-28T15:37:31.351Z,39.2
2022-11-28T15:38:18.658Z,38.9
2022-11-28T15:39:06.060Z,39.1
2022-11-28T15:39:53.482Z,39.3
2022-11-28T15:40:40.757Z,39.3
2022-11-28T15:41:28.146Z,39.2
2022-11-28T15:42:15.452Z,39.1
2022-11-28T15:43:04.700Z,39.3
2022-11-28T15:43:55.313Z,39.3
2022-11-28T15:44:42.960Z,39.2
2022-11-28T15:45:30.444Z,39.3
2022-11-28T15:46:17.782Z,39.3
2022-11-28T15:47:05.211Z,39.4
2022-11-28T15:47:52.567Z,39.4
2022-11-28T15:48:40.539Z,39.3
2022-11-28T15:49:27.952Z,39.3
2022-11-28T15:50:15.306Z,39.2